Blue Star Naxos — SZUI — position and weather

sailwx.info

Track history (hours):
 
Tides and Currents Weather Stations Pressure Air Temp Water Temp Dewpoint Dewpoint Depression Visibility Wind Speed Wind Dir Waves Ship Positions

Blue Star Naxos

Last reported at 2017-Jun-26 13:30 UTC. Time now 2017-Jun-26 14:08 UTC.
Position N 37°31' E 024°51'.

Length 124 m; draft 5 m.

Type: Passenger vessel. MMSI: 239923000.

Date/timePositionNaut miles runAvg speedWind from/ knotsBaromVisibWave heightAir tempDewpointWater temp
2017-Jun-26 13:30N 37°31' E 024°51'612.3
2017-Jun-26 13:00N 37°26' E 024°57'1 2.5
2017-Jun-26 12:31N 37°27' E 024°58'1121.2
2017-Jun-26 12:00N 37°32' E 025°09'510.4
2017-Jun-26 11:31N 37°29' E 025°15'4 8.2
2017-Jun-26 11:01N 37°28' E 025°20'0 0.0
2017-Jun-26 10:31N 37°28' E 025°20'0 0.0
2017-Jun-26 10:01N 37°28' E 025°20'713.5
2017-Jun-26 09:31N 37°31' E 025°12'5 9.7
2017-Jun-26 09:00N 37°30' E 025°06'813.0
2017-Jun-26 08:22N 37°26' E 024°57'411.7
2017-Jun-26 08:00N 37°31' E 024°56'4922.4
2017-Jun-26 05:49N 37°36' E 023°54'722.8
2017-Jun-26 05:30N 37°39' E 023°46'1121.6
2017-Jun-26 05:01N 37°48' E 023°38'918.1
2017-Jun-26 04:30N 37°57' E 023°38'0 0.1
2017-Jun-26 04:00N 37°57' E 023°38'0 0.0
2017-Jun-26 03:30N 37°57' E 023°38'0 0.0
2017-Jun-26 03:00N 37°57' E 023°38'0 0.0
2017-Jun-26 02:30N 37°57' E 023°38'0 0.0
2017-Jun-26 02:00N 37°57' E 023°38'2 4.9
2017-Jun-26 01:30N 37°55' E 023°38'1019.2
2017-Jun-26 01:00N 37°46' E 023°43'918.4
2017-Jun-26 00:31N 37°39' E 023°51'4819.4
2017-Jun-25 22:03N 37°19' E 024°45'120.4
2017-Jun-25 22:00N 37°18' E 024°46'1020.0
2017-Jun-25 21:31N 37°12' E 024°56'1020.0
2017-Jun-25 21:00N 37°06' E 025°06'2 3.5
2017-Jun-25 20:27N 37°05' E 025°08'714.7
2017-Jun-25 20:01N 37°10' E 025°14'714.5
2017-Jun-25 19:30N 37°06' E 025°22'0 0.0
2017-Jun-25 19:00N 37°06' E 025°22'713.2
2017-Jun-25 18:30N 37°00' E 025°19'2 0.2
2017-Jun-25 09:56N 36°59' E 025°21'716.6
2017-Jun-25 09:31N 37°06' E 025°22'3 6.3
2017-Jun-25 09:01N 37°09' E 025°19'1018.9
2017-Jun-25 08:30N 37°06' E 025°08'1 2.0
2017-Jun-25 08:00N 37°06' E 025°06'1122.9
2017-Jun-25 07:30N 37°13' E 024°55'5322.3
2017-Jun-25 05:09N 37°36' E 023°55'423.1
2017-Jun-25 04:59N 37°38' E 023°51'1021.5
2017-Jun-25 04:31N 37°44' E 023°40'1122.5
2017-Jun-25 04:01N 37°55' E 023°37'2 5.0
2017-Jun-25 03:31N 37°57' E 023°38'0 0.0
2017-Jun-25 03:01N 37°57' E 023°38'0 0.0
2017-Jun-25 02:31N 37°57' E 023°38'0 0.0
2017-Jun-25 02:01N 37°57' E 023°38'0 0.0
2017-Jun-25 01:31N 37°57' E 023°38'0 0.0
2017-Jun-25 01:01N 37°57' E 023°38'0 0.0
2017-Jun-25 00:31N 37°57' E 023°38'0 0.0
2017-Jun-25 00:01N 37°57' E 023°38'0 0.0
2017-Jun-24 23:31N 37°57' E 023°38'0 0.0
2017-Jun-24 23:00N 37°57' E 023°38'0 0.0
2017-Jun-24 22:31N 37°57' E 023°38'0 0.0
2017-Jun-24 22:01N 37°57' E 023°38'0 0.0
2017-Jun-24 21:31N 37°57' E 023°38'0 0.0
2017-Jun-24 21:01N 37°57' E 023°38'0 0.0
2017-Jun-24 20:31N 37°57' E 023°38'0 0.0
2017-Jun-24 20:01N 37°57' E 023°38'0 0.0
2017-Jun-24 19:31N 37°57' E 023°38'0 0.0
2017-Jun-24 19:00N 37°57' E 023°38'0 0.0
2017-Jun-24 18:31N 37°57' E 023°38'0 0.0
2017-Jun-24 18:01N 37°57' E 023°38'0 0.0
2017-Jun-24 17:30N 37°57' E 023°38'0 0.0
2017-Jun-24 17:00N 37°57' E 023°38'2 4.5
2017-Jun-24 16:30N 37°55' E 023°38'1121.7
2017-Jun-24 16:01N 37°45' E 023°43'1121.5
2017-Jun-24 15:30N 37°38' E 023°54'4022.4
2017-Jun-24 13:43N 37°31' E 024°44'522.9
2017-Jun-24 13:31N 37°31' E 024°50'7 8.0
2017-Jun-24 12:38N 37°26' E 024°57'1 9.7
2017-Jun-24 12:30N 37°27' E 024°58'1121.3
2017-Jun-24 12:01N 37°32' E 025°09'4 9.0
2017-Jun-24 11:30N 37°30' E 025°14'5 9.3
2017-Jun-24 11:00N 37°28' E 025°19'0 0.0
2017-Jun-24 10:30N 37°28' E 025°19'3 6.6
2017-Jun-24 10:00N 37°29' E 025°16'611.7
2017-Jun-24 09:30N 37°32' E 025°09'918.2
2017-Jun-24 09:00N 37°27' E 024°59'2 3.9
2017-Jun-24 08:23N 37°26' E 024°57'614.0
2017-Jun-24 07:58N 37°31' E 024°52'4522.4
2017-Jun-24 05:56N 37°36' E 023°55'1022.9
2017-Jun-24 05:31N 37°39' E 023°44'1122.6
2017-Jun-24 05:01N 37°49' E 023°37'714.9
2017-Jun-24 04:30N 37°57' E 023°38'0 0.0
2017-Jun-24 04:00N 37°57' E 023°38'0 0.0
2017-Jun-24 03:30N 37°57' E 023°38'0 0.0
2017-Jun-24 03:00N 37°57' E 023°38'0 0.0
2017-Jun-24 02:30N 37°57' E 023°38'0 0.0
2017-Jun-24 02:00N 37°57' E 023°38'0 0.3
2017-Jun-24 01:31N 37°57' E 023°39'0 0.3
2017-Jun-24 01:00N 37°57' E 023°38'0 0.0
2017-Jun-24 00:30N 37°57' E 023°38'0 0.0
2017-Jun-24 00:00N 37°57' E 023°38'0 0.0
2017-Jun-23 23:30N 37°57' E 023°38'0 0.0
2017-Jun-23 23:00N 37°57' E 023°38'0 0.0
2017-Jun-23 22:30N 37°57' E 023°38'0 0.0
2017-Jun-23 22:01N 37°57' E 023°38'0 0.0
2017-Jun-23 21:30N 37°57' E 023°38'0 0.0
2017-Jun-23 21:00N 37°57' E 023°38'0 0.0
2017-Jun-23 20:30N 37°57' E 023°38'0 0.0
2017-Jun-23 20:00N 37°57' E 023°38'0 0.0
2017-Jun-23 19:31N 37°57' E 023°38'0 0.0
2017-Jun-23 19:00N 37°57' E 023°38'0 0.0
2017-Jun-23 18:30N 37°57' E 023°38'4 8.8
2017-Jun-23 18:00N 37°52' E 023°39'1223.1
2017-Jun-23 17:31N 37°42' E 023°45'1122.2
2017-Jun-23 17:00N 37°37' E 023°58'1122.4
2017-Jun-23 16:30N 37°33' E 024°11'2622.9
2017-Jun-23 15:22N 37°31' E 024°44'1022.7
2017-Jun-23 14:56N 37°30' E 024°56'4 2.6
2017-Jun-23 13:30N 37°26' E 024°57'0 0.0
2017-Jun-23 12:47N 37°26' E 024°57'514.9
2017-Jun-23 12:26N 37°29' E 025°03'615.4
2017-Jun-23 12:00N 37°32' E 025°09'918.0
2017-Jun-23 11:31N 37°28' E 025°19'0 0.8
2017-Jun-23 11:00N 37°28' E 025°20'0 0.0
2017-Jun-23 10:30N 37°28' E 025°20'0 0.2
2017-Jun-23 10:01N 37°28' E 025°20'918.5
2017-Jun-23 09:30N 37°32' E 025°09'612.8
2017-Jun-23 09:00N 37°29' E 025°02'510.2
2017-Jun-23 08:29N 37°26' E 024°57'610.1
2017-Jun-23 07:55N 37°31' E 024°52'4722.3
2017-Jun-23 05:49N 37°36' E 023°54'722.9
2017-Jun-23 05:31N 37°39' E 023°46'1121.9
2017-Jun-23 05:01N 37°48' E 023°38'917.1
2017-Jun-23 04:30N 37°57' E 023°38'0 0.0
2017-Jun-23 04:00N 37°57' E 023°38'0 0.0
2017-Jun-23 03:30N 37°57' E 023°38'0 0.0
2017-Jun-23 03:00N 37°57' E 023°38'0 0.0
2017-Jun-23 02:30N 37°57' E 023°38'0 0.0
2017-Jun-23 02:00N 37°57' E 023°38'0 0.0
2017-Jun-23 01:30N 37°57' E 023°38'0 0.0
2017-Jun-23 01:00N 37°57' E 023°38'0 0.0
2017-Jun-23 00:30N 37°57' E 023°38'0 0.0
2017-Jun-23 00:00N 37°57' E 023°38'0 0.0
2017-Jun-22 23:30N 37°57' E 023°38'0 0.0
2017-Jun-22 23:00N 37°57' E 023°38'0 0.0
2017-Jun-22 22:30N 37°57' E 023°38'0 0.0
2017-Jun-22 22:00N 37°57' E 023°38'0 0.0
2017-Jun-22 21:30N 37°57' E 023°38'0 0.0
2017-Jun-22 21:00N 37°57' E 023°38'0 0.0
2017-Jun-22 20:30N 37°57' E 023°38'0 0.0
2017-Jun-22 20:00N 37°57' E 023°38'0 0.0
2017-Jun-22 19:30N 37°57' E 023°38'0 0.0
2017-Jun-22 19:00N 37°57' E 023°38'0 0.0
2017-Jun-22 18:30N 37°57' E 023°38'0 0.0
2017-Jun-22 18:00N 37°57' E 023°38'0 0.0
2017-Jun-22 17:30N 37°57' E 023°38'0 0.0
2017-Jun-22 17:00N 37°57' E 023°38'4 7.2
2017-Jun-22 16:30N 37°53' E 023°38'1122.8
2017-Jun-22 16:01N 37°43' E 023°44'1121.9
2017-Jun-22 15:30N 37°37' E 023°56'3822.5
2017-Jun-22 13:49N 37°31' E 024°44'1022.5
2017-Jun-22 13:23N 37°30' E 024°56'4 6.2
2017-Jun-22 12:46N 37°26' E 024°57'514.7
2017-Jun-22 12:24N 37°29' E 025°02'716.5
2017-Jun-22 12:00N 37°32' E 025°09'611.7
2017-Jun-22 11:31N 37°29' E 025°16'3 6.7
2017-Jun-22 11:01N 37°28' E 025°19'0 0.0
2017-Jun-22 10:31N 37°28' E 025°19'0 0.0
2017-Jun-22 10:01N 37°28' E 025°19'917.5
2017-Jun-22 09:31N 37°32' E 025°10'3 5.6
2017-Jun-22 09:00N 37°31' E 025°06'915.5
2017-Jun-22 08:27N 37°26' E 024°57'510.1
2017-Jun-22 07:57N 37°31' E 024°54'5122.4
2017-Jun-22 05:40N 37°38' E 023°50'423.2
2017-Jun-22 05:30N 37°39' E 023°46'1121.8
2017-Jun-22 05:00N 37°48' E 023°38'917.9
2017-Jun-22 04:30N 37°57' E 023°38'0 0.1
2017-Jun-22 04:00N 37°57' E 023°38'0 0.0
2017-Jun-22 03:30N 37°57' E 023°38'0 0.0
2017-Jun-22 03:00N 37°57' E 023°38'0 0.0
2017-Jun-22 02:30N 37°57' E 023°38'0 0.0
2017-Jun-22 02:00N 37°57' E 023°38'0 0.0
2017-Jun-22 01:30N 37°57' E 023°38'0 0.0
2017-Jun-22 01:00N 37°57' E 023°38'0 0.0
2017-Jun-22 00:30N 37°57' E 023°38'0 0.0
2017-Jun-22 00:00N 37°57' E 023°38'0 0.0
2017-Jun-21 23:30N 37°57' E 023°38'0 0.0
2017-Jun-21 23:00N 37°57' E 023°38'0 0.0
2017-Jun-21 22:30N 37°57' E 023°38'0 0.0
2017-Jun-21 22:00N 37°57' E 023°38'0 0.0
2017-Jun-21 21:30N 37°57' E 023°38'0 0.0
2017-Jun-21 21:00N 37°57' E 023°38'0 0.0
2017-Jun-21 20:30N 37°57' E 023°38'0 0.0
2017-Jun-21 20:00N 37°57' E 023°38'0 0.0
2017-Jun-21 19:30N 37°57' E 023°38'0 0.0
2017-Jun-21 19:00N 37°57' E 023°38'0 0.0
2017-Jun-21 18:30N 37°57' E 023°38'0 0.0
2017-Jun-21 18:00N 37°57' E 023°38'0 0.0
2017-Jun-21 17:30N 37°57' E 023°38'0 0.0
2017-Jun-21 17:00N 37°57' E 023°38'5 9.2
2017-Jun-21 16:30N 37°52' E 023°39'1223.1
2017-Jun-21 16:00N 37°42' E 023°45'1122.1
2017-Jun-21 15:31N 37°37' E 023°58'3722.5
2017-Jun-21 13:52N 37°31' E 024°44'1022.6
2017-Jun-21 13:26N 37°30' E 024°56'4 8.5
2017-Jun-21 12:59N 37°26' E 024°57'5 9.7
2017-Jun-21 12:26N 37°29' E 025°03'715.2
2017-Jun-21 12:00N 37°32' E 025°09'713.5
2017-Jun-21 11:30N 37°29' E 025°17'2 4.8
2017-Jun-21 11:00N 37°28' E 025°19'0 0.0
2017-Jun-21 10:30N 37°28' E 025°19'612.4
2017-Jun-21 10:00N 37°30' E 025°12'3 7.0
2017-Jun-21 09:30N 37°32' E 025°08'1120.5
2017-Jun-21 08:59N 37°26' E 024°57'0 0.0
2017-Jun-21 08:28N 37°26' E 024°57'611.2
2017-Jun-21 07:58N 37°31' E 024°52'4921.9
2017-Jun-21 05:44N 37°37' E 023°51'522.6
2017-Jun-21 05:31N 37°39' E 023°45'1121.8
2017-Jun-21 05:01N 37°48' E 023°38'917.4
2017-Jun-21 04:31N 37°57' E 023°38'0 0.0
2017-Jun-21 04:00N 37°57' E 023°38'0 0.0
2017-Jun-21 03:30N 37°57' E 023°38'0 0.0
2017-Jun-21 03:00N 37°57' E 023°38'0 0.0
2017-Jun-21 02:30N 37°57' E 023°38'0 0.0
2017-Jun-21 02:00N 37°57' E 023°38'0 0.0
2017-Jun-21 01:30N 37°57' E 023°38'0 0.0
2017-Jun-21 01:00N 37°57' E 023°38'0 0.0
2017-Jun-21 00:30N 37°57' E 023°38'0 0.0
2017-Jun-21 00:00N 37°57' E 023°38'0 0.0
2017-Jun-20 23:30N 37°57' E 023°38'0 0.0
2017-Jun-20 23:00N 37°57' E 023°38'0 0.0
2017-Jun-20 22:30N 37°57' E 023°38'0 0.0
2017-Jun-20 22:00N 37°57' E 023°38'0 0.0
2017-Jun-20 21:30N 37°57' E 023°38'0 0.0
2017-Jun-20 21:00N 37°57' E 023°38'0 0.0
2017-Jun-20 20:30N 37°57' E 023°38'0 0.0
2017-Jun-20 20:00N 37°57' E 023°38'0 0.0
2017-Jun-20 19:30N 37°57' E 023°38'0 0.0
2017-Jun-20 19:00N 37°57' E 023°38'0 0.0
2017-Jun-20 18:30N 37°57' E 023°38'0 0.0
2017-Jun-20 18:00N 37°57' E 023°38'0 0.0
2017-Jun-20 17:30N 37°57' E 023°38'0 0.0
2017-Jun-20 17:00N 37°57' E 023°38'2 3.9
2017-Jun-20 16:30N 37°55' E 023°38'1121.4
2017-Jun-20 16:01N 37°45' E 023°43'5021.6
2017-Jun-20 13:41N 37°31' E 024°44'422.8
2017-Jun-20 13:30N 37°31' E 024°49'814.9
2017-Jun-20 13:00N 37°26' E 024°57'1 1.1
2017-Jun-20 12:30N 37°26' E 024°57'1122.6
2017-Jun-20 12:00N 37°32' E 025°09'510.6
2017-Jun-20 11:30N 37°29' E 025°15'4 8.0
2017-Jun-20 11:00N 37°28' E 025°19'0 0.0
2017-Jun-20 10:30N 37°28' E 025°19'0 0.0
2017-Jun-20 10:00N 37°28' E 025°19'816.5
2017-Jun-20 09:31N 37°31' E 025°10'4 8.7
2017-Jun-20 09:01N 37°30' E 025°05'814.9
2017-Jun-20 08:30N 37°26' E 024°57'610.0
2017-Jun-20 07:56N 37°31' E 024°52'4922.0
2017-Jun-20 05:43N 37°37' E 023°52'722.7
2017-Jun-20 05:24N 37°40' E 023°43'922.4
2017-Jun-20 05:00N 37°48' E 023°38'9 0.7
2017-Jun-19 16:46N 37°57' E 023°38'5819.3
2017-Jun-19 13:46N 37°31' E 024°44'623.1
2017-Jun-19 13:31N 37°31' E 024°51'6 6.7
2017-Jun-19 12:33N 37°26' E 024°57'121.7
2017-Jun-19 12:31N 37°26' E 024°58'1121.8
2017-Jun-19 12:00N 37°32' E 025°09'510.0
2017-Jun-19 11:30N 37°29' E 025°15'4 8.3
2017-Jun-19 11:00N 37°28' E 025°19'0 0.0
2017-Jun-19 10:30N 37°28' E 025°19'0 0.0
2017-Jun-19 10:00N 37°28' E 025°19'613.0
2017-Jun-19 09:30N 37°31' E 025°12'510.3
2017-Jun-19 09:00N 37°30' E 025°06'812.1
2017-Jun-19 08:20N 37°26' E 024°57'613.2
2017-Jun-19 07:53N 37°31' E 024°52'4922.2
2017-Jun-19 05:40N 37°37' E 023°51'422.7
2017-Jun-19 05:30N 37°39' E 023°46'1121.6
2017-Jun-19 05:01N 37°48' E 023°38'918.6
2017-Jun-19 04:31N 37°57' E 023°38'0 0.1
2017-Jun-19 04:01N 37°57' E 023°38'0 0.0
2017-Jun-19 03:31N 37°57' E 023°38'0 0.0
2017-Jun-19 03:00N 37°57' E 023°38'0 0.0
2017-Jun-19 02:30N 37°57' E 023°38'0 0.0
2017-Jun-19 02:00N 37°57' E 023°38'0 0.0
2017-Jun-19 01:30N 37°57' E 023°38'0 0.0
2017-Jun-19 01:00N 37°57' E 023°38'0 0.0
2017-Jun-19 00:30N 37°57' E 023°38'0 0.0
2017-Jun-19 00:01N 37°57' E 023°38'0 0.0
2017-Jun-18 23:30N 37°57' E 023°38'0 0.0
2017-Jun-18 23:00N 37°57' E 023°38'0 0.0
2017-Jun-18 22:30N 37°57' E 023°38'0 0.0
2017-Jun-18 22:00N 37°57' E 023°38'0 0.0
2017-Jun-18 21:30N 37°57' E 023°38'0 0.0
2017-Jun-18 21:01N 37°57' E 023°38'0 0.0
2017-Jun-18 20:30N 37°57' E 023°38'0 0.0
2017-Jun-18 20:01N 37°57' E 023°38'0 0.0
2017-Jun-18 19:30N 37°57' E 023°38'0 0.0
2017-Jun-18 19:00N 37°57' E 023°38'0 0.0
2017-Jun-18 18:30N 37°57' E 023°38'0 0.0
2017-Jun-18 18:00N 37°57' E 023°38'0 0.0
2017-Jun-18 17:30N 37°57' E 023°38'0 0.0
2017-Jun-18 17:00N 37°57' E 023°38'4 8.0
2017-Jun-18 16:31N 37°53' E 023°39'1223.1
2017-Jun-18 16:00N 37°42' E 023°45'4822.3
2017-Jun-18 13:51N 37°31' E 024°44'1022.0
2017-Jun-18 13:23N 37°29' E 024°57'3 8.2
2017-Jun-18 13:00N 37°26' E 024°57'0 0.8
2017-Jun-18 12:30N 37°26' E 024°57'1122.8
2017-Jun-18 12:00N 37°32' E 025°09'5 9.3
2017-Jun-18 11:31N 37°30' E 025°14'5 9.2
2017-Jun-18 11:00N 37°28' E 025°19'0 0.0
2017-Jun-18 10:30N 37°28' E 025°19'0 0.0
2017-Jun-18 10:00N 37°28' E 025°19'714.8
2017-Jun-18 09:31N 37°31' E 025°11'5 9.1
2017-Jun-18 09:00N 37°30' E 025°06'814.3
2017-Jun-18 08:27N 37°26' E 024°57'610.9
2017-Jun-18 07:55N 37°31' E 024°52'5022.0
2017-Jun-18 05:39N 37°38' E 023°50'322.5
2017-Jun-18 05:30N 37°39' E 023°46'1121.9
2017-Jun-18 05:00N 37°48' E 023°38'918.6
2017-Jun-18 04:31N 37°57' E 023°38'0 0.1
2017-Jun-18 04:00N 37°57' E 023°38'0 0.0
2017-Jun-18 03:30N 37°57' E 023°38'0 0.0
2017-Jun-18 03:00N 37°57' E 023°38'0 0.0
2017-Jun-18 02:30N 37°57' E 023°38'0 0.0
2017-Jun-18 02:00N 37°57' E 023°38'0 0.0
2017-Jun-18 01:30N 37°57' E 023°38'0 0.0
2017-Jun-18 01:00N 37°57' E 023°38'0 0.0
2017-Jun-18 00:30N 37°57' E 023°38'0 0.0
2017-Jun-18 00:00N 37°57' E 023°38'0 0.0
2017-Jun-17 23:30N 37°57' E 023°38'0 0.0
2017-Jun-17 23:00N 37°57' E 023°38'0 0.0
2017-Jun-17 22:30N 37°57' E 023°38'0 0.0
2017-Jun-17 22:00N 37°57' E 023°38'0 0.0
2017-Jun-17 21:30N 37°57' E 023°38'0 0.0
2017-Jun-17 21:00N 37°57' E 023°38'0 0.0
2017-Jun-17 20:30N 37°57' E 023°38'0 0.0
2017-Jun-17 20:00N 37°57' E 023°38'0 0.0
2017-Jun-17 19:30N 37°57' E 023°38'0 0.0
2017-Jun-17 19:00N 37°57' E 023°38'0 0.0
2017-Jun-17 18:30N 37°57' E 023°38'0 0.0
2017-Jun-17 18:00N 37°57' E 023°38'1 2.3
2017-Jun-17 17:31N 37°56' E 023°37'1020.1
2017-Jun-17 17:01N 37°47' E 023°42'1321.5
2017-Jun-17 16:24N 37°38' E 023°54'1422.8
2017-Jun-17 15:46N 37°33' E 024°11'2623.0
2017-Jun-17 14:38N 37°31' E 024°44'323.0
2017-Jun-17 14:31N 37°31' E 024°48'1210.9
2017-Jun-17 13:25N 37°29' E 025°02'716.1
2017-Jun-17 13:00N 37°32' E 025°09'918.4
2017-Jun-17 12:30N 37°28' E 025°19'0 0.2
2017-Jun-17 12:00N 37°28' E 025°19'815.7
2017-Jun-17 11:30N 37°31' E 025°11'510.2
2017-Jun-17 11:01N 37°30' E 025°05'714.1
2017-Jun-17 10:30N 37°26' E 024°57'4 7.4
2017-Jun-17 10:00N 37°30' E 024°56'5222.4
2017-Jun-17 07:42N 37°38' E 023°51'422.8
2017-Jun-17 07:31N 37°39' E 023°46'1121.8
2017-Jun-17 07:01N 37°48' E 023°38'918.0
2017-Jun-17 06:30N 37°57' E 023°38'0 0.0
2017-Jun-17 06:00N 37°57' E 023°38'0 0.0
2017-Jun-17 05:30N 37°57' E 023°38'0 0.0
2017-Jun-17 05:00N 37°57' E 023°38'1 2.8
2017-Jun-17 04:30N 37°56' E 023°37'612.0
2017-Jun-17 04:01N 37°50' E 023°40'1122.5
2017-Jun-17 03:30N 37°41' E 023°47'2122.8
2017-Jun-17 02:36N 37°33' E 024°11'2822.9
2017-Jun-17 01:23N 37°23' E 024°44'923.6
2017-Jun-17 01:01N 37°19' E 024°54'1223.3
2017-Jun-17 00:29N 37°14' E 025°08'1122.9
2017-Jun-17 00:01N 37°08' E 025°20'3 5.2
2017-Jun-16 23:30N 37°06' E 025°22'1118.7
2017-Jun-16 22:56N 37°07' E 025°09'2 3.3
2017-Jun-16 22:21N 37°05' E 025°09'721.5
2017-Jun-16 22:01N 37°09' E 025°01'1122.6
2017-Jun-16 21:31N 37°16' E 024°50'5422.3
2017-Jun-16 19:05N 37°39' E 023°48'222.9
2017-Jun-16 19:00N 37°39' E 023°45'1122.1
2017-Jun-16 18:31N 37°48' E 023°38'816.7
2017-Jun-16 18:00N 37°57' E 023°38'0 0.0
2017-Jun-16 17:30N 37°57' E 023°38'0 0.0
2017-Jun-16 17:00N 37°57' E 023°38'1 1.6
2017-Jun-16 16:30N 37°56' E 023°38'1019.3
2017-Jun-16 16:01N 37°47' E 023°42'1121.4
2017-Jun-16 15:30N 37°39' E 023°51'4322.9
2017-Jun-16 13:38N 37°31' E 024°44'323.3
2017-Jun-16 13:31N 37°31' E 024°47'  
Track history (hours):
 
Tides and Currents Weather Stations Pressure Air Temp Water Temp Dewpoint Dewpoint Depression Visibility Wind Speed Wind Dir Waves Ship Positions

Blue Star Naxos

Last reported at 2017-Jun-26 13:30 UTC. Time now 2017-Jun-26 14:08 UTC.
Position N 37°31' E 024°51'.

Length 124 m; draft 5 m.

Type: Passenger vessel. MMSI: 239923000.

Date/timePositionNaut miles runAvg speedWind from/ knotsBaromVisibWave heightAir tempDewpointWater temp
2017-Jun-26 13:30N 37°31' E 024°51'612.3
2017-Jun-26 13:00N 37°26' E 024°57'1 2.5
2017-Jun-26 12:31N 37°27' E 024°58'1121.2
2017-Jun-26 12:00N 37°32' E 025°09'510.4
2017-Jun-26 11:31N 37°29' E 025°15'4 8.2
2017-Jun-26 11:01N 37°28' E 025°20'0 0.0
2017-Jun-26 10:31N 37°28' E 025°20'0 0.0
2017-Jun-26 10:01N 37°28' E 025°20'713.5
2017-Jun-26 09:31N 37°31' E 025°12'5 9.7
2017-Jun-26 09:00N 37°30' E 025°06'813.0
2017-Jun-26 08:22N 37°26' E 024°57'411.7
2017-Jun-26 08:00N 37°31' E 024°56'4922.4
2017-Jun-26 05:49N 37°36' E 023°54'722.8
2017-Jun-26 05:30N 37°39' E 023°46'1121.6
2017-Jun-26 05:01N 37°48' E 023°38'918.1
2017-Jun-26 04:30N 37°57' E 023°38'0 0.1
2017-Jun-26 04:00N 37°57' E 023°38'0 0.0
2017-Jun-26 03:30N 37°57' E 023°38'0 0.0
2017-Jun-26 03:00N 37°57' E 023°38'0 0.0
2017-Jun-26 02:30N 37°57' E 023°38'0 0.0
2017-Jun-26 02:00N 37°57' E 023°38'2 4.9
2017-Jun-26 01:30N 37°55' E 023°38'1019.2
2017-Jun-26 01:00N 37°46' E 023°43'918.4
2017-Jun-26 00:31N 37°39' E 023°51'4819.4
2017-Jun-25 22:03N 37°19' E 024°45'120.4
2017-Jun-25 22:00N 37°18' E 024°46'1020.0
2017-Jun-25 21:31N 37°12' E 024°56'1020.0
2017-Jun-25 21:00N 37°06' E 025°06'2 3.5
2017-Jun-25 20:27N 37°05' E 025°08'714.7
2017-Jun-25 20:01N 37°10' E 025°14'714.5
2017-Jun-25 19:30N 37°06' E 025°22'0 0.0
2017-Jun-25 19:00N 37°06' E 025°22'713.2
2017-Jun-25 18:30N 37°00' E 025°19'2 0.2
2017-Jun-25 09:56N 36°59' E 025°21'716.6
2017-Jun-25 09:31N 37°06' E 025°22'3 6.3
2017-Jun-25 09:01N 37°09' E 025°19'1018.9
2017-Jun-25 08:30N 37°06' E 025°08'1 2.0
2017-Jun-25 08:00N 37°06' E 025°06'1122.9
2017-Jun-25 07:30N 37°13' E 024°55'5322.3
2017-Jun-25 05:09N 37°36' E 023°55'423.1
2017-Jun-25 04:59N 37°38' E 023°51'1021.5
2017-Jun-25 04:31N 37°44' E 023°40'1122.5
2017-Jun-25 04:01N 37°55' E 023°37'2 5.0
2017-Jun-25 03:31N 37°57' E 023°38'0 0.0
2017-Jun-25 03:01N 37°57' E 023°38'0 0.0
2017-Jun-25 02:31N 37°57' E 023°38'0 0.0
2017-Jun-25 02:01N 37°57' E 023°38'0 0.0
2017-Jun-25 01:31N 37°57' E 023°38'0 0.0
2017-Jun-25 01:01N 37°57' E 023°38'0 0.0
2017-Jun-25 00:31N 37°57' E 023°38'0 0.0
2017-Jun-25 00:01N 37°57' E 023°38'0 0.0
2017-Jun-24 23:31N 37°57' E 023°38'0 0.0
2017-Jun-24 23:00N 37°57' E 023°38'0 0.0
2017-Jun-24 22:31N 37°57' E 023°38'0 0.0
2017-Jun-24 22:01N 37°57' E 023°38'0 0.0
2017-Jun-24 21:31N 37°57' E 023°38'0 0.0
2017-Jun-24 21:01N 37°57' E 023°38'0 0.0
2017-Jun-24 20:31N 37°57' E 023°38'0 0.0
2017-Jun-24 20:01N 37°57' E 023°38'0 0.0
2017-Jun-24 19:31N 37°57' E 023°38'0 0.0
2017-Jun-24 19:00N 37°57' E 023°38'0 0.0
2017-Jun-24 18:31N 37°57' E 023°38'0 0.0
2017-Jun-24 18:01N 37°57' E 023°38'0 0.0
2017-Jun-24 17:30N 37°57' E 023°38'0 0.0
2017-Jun-24 17:00N 37°57' E 023°38'2 4.5
2017-Jun-24 16:30N 37°55' E 023°38'1121.7
2017-Jun-24 16:01N 37°45' E 023°43'1121.5
2017-Jun-24 15:30N 37°38' E 023°54'4022.4
2017-Jun-24 13:43N 37°31' E 024°44'522.9
2017-Jun-24 13:31N 37°31' E 024°50'7 8.0
2017-Jun-24 12:38N 37°26' E 024°57'1 9.7
2017-Jun-24 12:30N 37°27' E 024°58'1121.3
2017-Jun-24 12:01N 37°32' E 025°09'4 9.0
2017-Jun-24 11:30N 37°30' E 025°14'5 9.3
2017-Jun-24 11:00N 37°28' E 025°19'0 0.0
2017-Jun-24 10:30N 37°28' E 025°19'3 6.6
2017-Jun-24 10:00N 37°29' E 025°16'611.7
2017-Jun-24 09:30N 37°32' E 025°09'918.2
2017-Jun-24 09:00N 37°27' E 024°59'2 3.9
2017-Jun-24 08:23N 37°26' E 024°57'614.0
2017-Jun-24 07:58N 37°31' E 024°52'4522.4
2017-Jun-24 05:56N 37°36' E 023°55'1022.9
2017-Jun-24 05:31N 37°39' E 023°44'1122.6
2017-Jun-24 05:01N 37°49' E 023°37'714.9
2017-Jun-24 04:30N 37°57' E 023°38'0 0.0
2017-Jun-24 04:00N 37°57' E 023°38'0 0.0
2017-Jun-24 03:30N 37°57' E 023°38'0 0.0
2017-Jun-24 03:00N 37°57' E 023°38'0 0.0
2017-Jun-24 02:30N 37°57' E 023°38'0 0.0
2017-Jun-24 02:00N 37°57' E 023°38'0 0.3
2017-Jun-24 01:31N 37°57' E 023°39'0 0.3
2017-Jun-24 01:00N 37°57' E 023°38'0 0.0
2017-Jun-24 00:30N 37°57' E 023°38'0 0.0
2017-Jun-24 00:00N 37°57' E 023°38'0 0.0
2017-Jun-23 23:30N 37°57' E 023°38'0 0.0
2017-Jun-23 23:00N 37°57' E 023°38'0 0.0
2017-Jun-23 22:30N 37°57' E 023°38'0 0.0
2017-Jun-23 22:01N 37°57' E 023°38'0 0.0
2017-Jun-23 21:30N 37°57' E 023°38'0 0.0
2017-Jun-23 21:00N 37°57' E 023°38'0 0.0
2017-Jun-23 20:30N 37°57' E 023°38'0 0.0
2017-Jun-23 20:00N 37°57' E 023°38'0 0.0
2017-Jun-23 19:31N 37°57' E 023°38'0 0.0
2017-Jun-23 19:00N 37°57' E 023°38'0 0.0
2017-Jun-23 18:30N 37°57' E 023°38'4 8.8
2017-Jun-23 18:00N 37°52' E 023°39'1223.1
2017-Jun-23 17:31N 37°42' E 023°45'1122.2
2017-Jun-23 17:00N 37°37' E 023°58'1122.4
2017-Jun-23 16:30N 37°33' E 024°11'2622.9
2017-Jun-23 15:22N 37°31' E 024°44'1022.7
2017-Jun-23 14:56N 37°30' E 024°56'4 2.6
2017-Jun-23 13:30N 37°26' E 024°57'0 0.0
2017-Jun-23 12:47N 37°26' E 024°57'514.9
2017-Jun-23 12:26N 37°29' E 025°03'615.4
2017-Jun-23 12:00N 37°32' E 025°09'918.0
2017-Jun-23 11:31N 37°28' E 025°19'0 0.8
2017-Jun-23 11:00N 37°28' E 025°20'0 0.0
2017-Jun-23 10:30N 37°28' E 025°20'0 0.2
2017-Jun-23 10:01N 37°28' E 025°20'918.5
2017-Jun-23 09:30N 37°32' E 025°09'612.8
2017-Jun-23 09:00N 37°29' E 025°02'510.2
2017-Jun-23 08:29N 37°26' E 024°57'610.1
2017-Jun-23 07:55N 37°31' E 024°52'4722.3
2017-Jun-23 05:49N 37°36' E 023°54'722.9
2017-Jun-23 05:31N 37°39' E 023°46'1121.9
2017-Jun-23 05:01N 37°48' E 023°38'917.1
2017-Jun-23 04:30N 37°57' E 023°38'0 0.0
2017-Jun-23 04:00N 37°57' E 023°38'0 0.0
2017-Jun-23 03:30N 37°57' E 023°38'0 0.0
2017-Jun-23 03:00N 37°57' E 023°38'0 0.0
2017-Jun-23 02:30N 37°57' E 023°38'0 0.0
2017-Jun-23 02:00N 37°57' E 023°38'0 0.0
2017-Jun-23 01:30N 37°57' E 023°38'0 0.0
2017-Jun-23 01:00N 37°57' E 023°38'0 0.0
2017-Jun-23 00:30N 37°57' E 023°38'0 0.0
2017-Jun-23 00:00N 37°57' E 023°38'0 0.0
2017-Jun-22 23:30N 37°57' E 023°38'0 0.0
2017-Jun-22 23:00N 37°57' E 023°38'0 0.0
2017-Jun-22 22:30N 37°57' E 023°38'0 0.0
2017-Jun-22 22:00N 37°57' E 023°38'0 0.0
2017-Jun-22 21:30N 37°57' E 023°38'0 0.0
2017-Jun-22 21:00N 37°57' E 023°38'0 0.0
2017-Jun-22 20:30N 37°57' E 023°38'0 0.0
2017-Jun-22 20:00N 37°57' E 023°38'0 0.0
2017-Jun-22 19:30N 37°57' E 023°38'0 0.0
2017-Jun-22 19:00N 37°57' E 023°38'0 0.0
2017-Jun-22 18:30N 37°57' E 023°38'0 0.0
2017-Jun-22 18:00N 37°57' E 023°38'0 0.0
2017-Jun-22 17:30N 37°57' E 023°38'0 0.0
2017-Jun-22 17:00N 37°57' E 023°38'4 7.2
2017-Jun-22 16:30N 37°53' E 023°38'1122.8
2017-Jun-22 16:01N 37°43' E 023°44'1121.9
2017-Jun-22 15:30N 37°37' E 023°56'3822.5
2017-Jun-22 13:49N 37°31' E 024°44'1022.5
2017-Jun-22 13:23N 37°30' E 024°56'4 6.2
2017-Jun-22 12:46N 37°26' E 024°57'514.7
2017-Jun-22 12:24N 37°29' E 025°02'716.5
2017-Jun-22 12:00N 37°32' E 025°09'611.7
2017-Jun-22 11:31N 37°29' E 025°16'3 6.7
2017-Jun-22 11:01N 37°28' E 025°19'0 0.0
2017-Jun-22 10:31N 37°28' E 025°19'0 0.0
2017-Jun-22 10:01N 37°28' E 025°19'917.5
2017-Jun-22 09:31N 37°32' E 025°10'3 5.6
2017-Jun-22 09:00N 37°31' E 025°06'915.5
2017-Jun-22 08:27N 37°26' E 024°57'510.1
2017-Jun-22 07:57N 37°31' E 024°54'5122.4
2017-Jun-22 05:40N 37°38' E 023°50'423.2
2017-Jun-22 05:30N 37°39' E 023°46'1121.8
2017-Jun-22 05:00N 37°48' E 023°38'917.9
2017-Jun-22 04:30N 37°57' E 023°38'0 0.1
2017-Jun-22 04:00N 37°57' E 023°38'0 0.0
2017-Jun-22 03:30N 37°57' E 023°38'0 0.0
2017-Jun-22 03:00N 37°57' E 023°38'0 0.0
2017-Jun-22 02:30N 37°57' E 023°38'0 0.0
2017-Jun-22 02:00N 37°57' E 023°38'0 0.0
2017-Jun-22 01:30N 37°57' E 023°38'0 0.0
2017-Jun-22 01:00N 37°57' E 023°38'0 0.0
2017-Jun-22 00:30N 37°57' E 023°38'0 0.0
2017-Jun-22 00:00N 37°57' E 023°38'0 0.0
2017-Jun-21 23:30N 37°57' E 023°38'0 0.0
2017-Jun-21 23:00N 37°57' E 023°38'0 0.0
2017-Jun-21 22:30N 37°57' E 023°38'0 0.0
2017-Jun-21 22:00N 37°57' E 023°38'0 0.0
2017-Jun-21 21:30N 37°57' E 023°38'0 0.0
2017-Jun-21 21:00N 37°57' E 023°38'0 0.0
2017-Jun-21 20:30N 37°57' E 023°38'0 0.0
2017-Jun-21 20:00N 37°57' E 023°38'0 0.0
2017-Jun-21 19:30N 37°57' E 023°38'0 0.0
2017-Jun-21 19:00N 37°57' E 023°38'0 0.0
2017-Jun-21 18:30N 37°57' E 023°38'0 0.0
2017-Jun-21 18:00N 37°57' E 023°38'0 0.0
2017-Jun-21 17:30N 37°57' E 023°38'0 0.0
2017-Jun-21 17:00N 37°57' E 023°38'5 9.2
2017-Jun-21 16:30N 37°52' E 023°39'1223.1
2017-Jun-21 16:00N 37°42' E 023°45'1122.1
2017-Jun-21 15:31N 37°37' E 023°58'3722.5
2017-Jun-21 13:52N 37°31' E 024°44'1022.6
2017-Jun-21 13:26N 37°30' E 024°56'4 8.5
2017-Jun-21 12:59N 37°26' E 024°57'5 9.7
2017-Jun-21 12:26N 37°29' E 025°03'715.2
2017-Jun-21 12:00N 37°32' E 025°09'713.5
2017-Jun-21 11:30N 37°29' E 025°17'2 4.8
2017-Jun-21 11:00N 37°28' E 025°19'0 0.0
2017-Jun-21 10:30N 37°28' E 025°19'612.4
2017-Jun-21 10:00N 37°30' E 025°12'3 7.0
2017-Jun-21 09:30N 37°32' E 025°08'1120.5
2017-Jun-21 08:59N 37°26' E 024°57'0 0.0
2017-Jun-21 08:28N 37°26' E 024°57'611.2
2017-Jun-21 07:58N 37°31' E 024°52'4921.9
2017-Jun-21 05:44N 37°37' E 023°51'522.6
2017-Jun-21 05:31N 37°39' E 023°45'1121.8
2017-Jun-21 05:01N 37°48' E 023°38'917.4
2017-Jun-21 04:31N 37°57' E 023°38'0 0.0
2017-Jun-21 04:00N 37°57' E 023°38'0 0.0
2017-Jun-21 03:30N 37°57' E 023°38'0 0.0
2017-Jun-21 03:00N 37°57' E 023°38'0 0.0
2017-Jun-21 02:30N 37°57' E 023°38'0 0.0
2017-Jun-21 02:00N 37°57' E 023°38'0 0.0
2017-Jun-21 01:30N 37°57' E 023°38'0 0.0
2017-Jun-21 01:00N 37°57' E 023°38'0 0.0
2017-Jun-21 00:30N 37°57' E 023°38'0 0.0
2017-Jun-21 00:00N 37°57' E 023°38'0 0.0
2017-Jun-20 23:30N 37°57' E 023°38'0 0.0
2017-Jun-20 23:00N 37°57' E 023°38'0 0.0
2017-Jun-20 22:30N 37°57' E 023°38'0 0.0
2017-Jun-20 22:00N 37°57' E 023°38'0 0.0
2017-Jun-20 21:30N 37°57' E 023°38'0 0.0
2017-Jun-20 21:00N 37°57' E 023°38'0 0.0
2017-Jun-20 20:30N 37°57' E 023°38'0 0.0
2017-Jun-20 20:00N 37°57' E 023°38'0 0.0
2017-Jun-20 19:30N 37°57' E 023°38'0 0.0
2017-Jun-20 19:00N 37°57' E 023°38'0 0.0
2017-Jun-20 18:30N 37°57' E 023°38'0 0.0
2017-Jun-20 18:00N 37°57' E 023°38'0 0.0
2017-Jun-20 17:30N 37°57' E 023°38'0 0.0
2017-Jun-20 17:00N 37°57' E 023°38'2 3.9
2017-Jun-20 16:30N 37°55' E 023°38'1121.4
2017-Jun-20 16:01N 37°45' E 023°43'5021.6
2017-Jun-20 13:41N 37°31' E 024°44'422.8
2017-Jun-20 13:30N 37°31' E 024°49'814.9
2017-Jun-20 13:00N 37°26' E 024°57'1 1.1
2017-Jun-20 12:30N 37°26' E 024°57'1122.6
2017-Jun-20 12:00N 37°32' E 025°09'510.6
2017-Jun-20 11:30N 37°29' E 025°15'4 8.0
2017-Jun-20 11:00N 37°28' E 025°19'0 0.0
2017-Jun-20 10:30N 37°28' E 025°19'0 0.0
2017-Jun-20 10:00N 37°28' E 025°19'816.5
2017-Jun-20 09:31N 37°31' E 025°10'4 8.7
2017-Jun-20 09:01N 37°30' E 025°05'814.9
2017-Jun-20 08:30N 37°26' E 024°57'610.0
2017-Jun-20 07:56N 37°31' E 024°52'4922.0
2017-Jun-20 05:43N 37°37' E 023°52'722.7
2017-Jun-20 05:24N 37°40' E 023°43'922.4
2017-Jun-20 05:00N 37°48' E 023°38'9 0.7
2017-Jun-19 16:46N 37°57' E 023°38'5819.3
2017-Jun-19 13:46N 37°31' E 024°44'623.1
2017-Jun-19 13:31N 37°31' E 024°51'6 6.7
2017-Jun-19 12:33N 37°26' E 024°57'121.7
2017-Jun-19 12:31N 37°26' E 024°58'1121.8
2017-Jun-19 12:00N 37°32' E 025°09'510.0
2017-Jun-19 11:30N 37°29' E 025°15'4 8.3
2017-Jun-19 11:00N 37°28' E 025°19'0 0.0
2017-Jun-19 10:30N 37°28' E 025°19'0 0.0
2017-Jun-19 10:00N 37°28' E 025°19'613.0
2017-Jun-19 09:30N 37°31' E 025°12'510.3
2017-Jun-19 09:00N 37°30' E 025°06'812.1
2017-Jun-19 08:20N 37°26' E 024°57'613.2
2017-Jun-19 07:53N 37°31' E 024°52'4922.2
2017-Jun-19 05:40N 37°37' E 023°51'422.7
2017-Jun-19 05:30N 37°39' E 023°46'1121.6
2017-Jun-19 05:01N 37°48' E 023°38'918.6
2017-Jun-19 04:31N 37°57' E 023°38'0 0.1
2017-Jun-19 04:01N 37°57' E 023°38'0 0.0
2017-Jun-19 03:31N 37°57' E 023°38'0 0.0
2017-Jun-19 03:00N 37°57' E 023°38'0 0.0
2017-Jun-19 02:30N 37°57' E 023°38'0 0.0
2017-Jun-19 02:00N 37°57' E 023°38'0 0.0
2017-Jun-19 01:30N 37°57' E 023°38'0 0.0
2017-Jun-19 01:00N 37°57' E 023°38'0 0.0
2017-Jun-19 00:30N 37°57' E 023°38'0 0.0
2017-Jun-19 00:01N 37°57' E 023°38'0 0.0
2017-Jun-18 23:30N 37°57' E 023°38'0 0.0
2017-Jun-18 23:00N 37°57' E 023°38'0 0.0
2017-Jun-18 22:30N 37°57' E 023°38'0 0.0
2017-Jun-18 22:00N 37°57' E 023°38'0 0.0
2017-Jun-18 21:30N 37°57' E 023°38'0 0.0
2017-Jun-18 21:01N 37°57' E 023°38'0 0.0
2017-Jun-18 20:30N 37°57' E 023°38'0 0.0
2017-Jun-18 20:01N 37°57' E 023°38'0 0.0
2017-Jun-18 19:30N 37°57' E 023°38'0 0.0
2017-Jun-18 19:00N 37°57' E 023°38'0 0.0
2017-Jun-18 18:30N 37°57' E 023°38'0 0.0
2017-Jun-18 18:00N 37°57' E 023°38'0 0.0
2017-Jun-18 17:30N 37°57' E 023°38'0 0.0
2017-Jun-18 17:00N 37°57' E 023°38'4 8.0
2017-Jun-18 16:31N 37°53' E 023°39'1223.1
2017-Jun-18 16:00N 37°42' E 023°45'4822.3
2017-Jun-18 13:51N 37°31' E 024°44'1022.0
2017-Jun-18 13:23N 37°29' E 024°57'3 8.2
2017-Jun-18 13:00N 37°26' E 024°57'0 0.8
2017-Jun-18 12:30N 37°26' E 024°57'1122.8
2017-Jun-18 12:00N 37°32' E 025°09'5 9.3
2017-Jun-18 11:31N 37°30' E 025°14'5 9.2
2017-Jun-18 11:00N 37°28' E 025°19'0 0.0
2017-Jun-18 10:30N 37°28' E 025°19'0 0.0
2017-Jun-18 10:00N 37°28' E 025°19'714.8
2017-Jun-18 09:31N 37°31' E 025°11'5 9.1
2017-Jun-18 09:00N 37°30' E 025°06'814.3
2017-Jun-18 08:27N 37°26' E 024°57'610.9
2017-Jun-18 07:55N 37°31' E 024°52'5022.0
2017-Jun-18 05:39N 37°38' E 023°50'322.5
2017-Jun-18 05:30N 37°39' E 023°46'1121.9
2017-Jun-18 05:00N 37°48' E 023°38'918.6
2017-Jun-18 04:31N 37°57' E 023°38'0 0.1
2017-Jun-18 04:00N 37°57' E 023°38'0 0.0
2017-Jun-18 03:30N 37°57' E 023°38'0 0.0
2017-Jun-18 03:00N 37°57' E 023°38'0 0.0
2017-Jun-18 02:30N 37°57' E 023°38'0 0.0
2017-Jun-18 02:00N 37°57' E 023°38'0 0.0
2017-Jun-18 01:30N 37°57' E 023°38'0 0.0
2017-Jun-18 01:00N 37°57' E 023°38'0 0.0
2017-Jun-18 00:30N 37°57' E 023°38'0 0.0
2017-Jun-18 00:00N 37°57' E 023°38'0 0.0
2017-Jun-17 23:30N 37°57' E 023°38'0 0.0
2017-Jun-17 23:00N 37°57' E 023°38'0 0.0
2017-Jun-17 22:30N 37°57' E 023°38'0 0.0
2017-Jun-17 22:00N 37°57' E 023°38'0 0.0
2017-Jun-17 21:30N 37°57' E 023°38'0 0.0
2017-Jun-17 21:00N 37°57' E 023°38'0 0.0
2017-Jun-17 20:30N 37°57' E 023°38'0 0.0
2017-Jun-17 20:00N 37°57' E 023°38'0 0.0
2017-Jun-17 19:30N 37°57' E 023°38'0 0.0
2017-Jun-17 19:00N 37°57' E 023°38'0 0.0
2017-Jun-17 18:30N 37°57' E 023°38'0 0.0
2017-Jun-17 18:00N 37°57' E 023°38'1 2.3
2017-Jun-17 17:31N 37°56' E 023°37'1020.1
2017-Jun-17 17:01N 37°47' E 023°42'1321.5
2017-Jun-17 16:24N 37°38' E 023°54'1422.8
2017-Jun-17 15:46N 37°33' E 024°11'2623.0
2017-Jun-17 14:38N 37°31' E 024°44'323.0
2017-Jun-17 14:31N 37°31' E 024°48'1210.9
2017-Jun-17 13:25N 37°29' E 025°02'716.1
2017-Jun-17 13:00N 37°32' E 025°09'918.4
2017-Jun-17 12:30N 37°28' E 025°19'0 0.2
2017-Jun-17 12:00N 37°28' E 025°19'815.7
2017-Jun-17 11:30N 37°31' E 025°11'510.2
2017-Jun-17 11:01N 37°30' E 025°05'714.1
2017-Jun-17 10:30N 37°26' E 024°57'4 7.4
2017-Jun-17 10:00N 37°30' E 024°56'5222.4
2017-Jun-17 07:42N 37°38' E 023°51'422.8
2017-Jun-17 07:31N 37°39' E 023°46'1121.8
2017-Jun-17 07:01N 37°48' E 023°38'918.0
2017-Jun-17 06:30N 37°57' E 023°38'0 0.0
2017-Jun-17 06:00N 37°57' E 023°38'0 0.0
2017-Jun-17 05:30N 37°57' E 023°38'0 0.0
2017-Jun-17 05:00N 37°57' E 023°38'1 2.8
2017-Jun-17 04:30N 37°56' E 023°37'612.0
2017-Jun-17 04:01N 37°50' E 023°40'1122.5
2017-Jun-17 03:30N 37°41' E 023°47'2122.8
2017-Jun-17 02:36N 37°33' E 024°11'2822.9
2017-Jun-17 01:23N 37°23' E 024°44'923.6
2017-Jun-17 01:01N 37°19' E 024°54'1223.3
2017-Jun-17 00:29N 37°14' E 025°08'1122.9
2017-Jun-17 00:01N 37°08' E 025°20'3 5.2
2017-Jun-16 23:30N 37°06' E 025°22'1118.7
2017-Jun-16 22:56N 37°07' E 025°09'2 3.3
2017-Jun-16 22:21N 37°05' E 025°09'721.5
2017-Jun-16 22:01N 37°09' E 025°01'1122.6
2017-Jun-16 21:31N 37°16' E 024°50'5422.3
2017-Jun-16 19:05N 37°39' E 023°48'222.9
2017-Jun-16 19:00N 37°39' E 023°45'1122.1
2017-Jun-16 18:31N 37°48' E 023°38'816.7
2017-Jun-16 18:00N 37°57' E 023°38'0 0.0
2017-Jun-16 17:30N 37°57' E 023°38'0 0.0
2017-Jun-16 17:00N 37°57' E 023°38'1 1.6
2017-Jun-16 16:30N 37°56' E 023°38'1019.3
2017-Jun-16 16:01N 37°47' E 023°42'1121.4
2017-Jun-16 15:30N 37°39' E 023°51'4322.9
2017-Jun-16 13:38N 37°31' E 024°44'323.3
2017-Jun-16 13:31N 37°31' E 024°47'  

Dump ship's entire track history